»·PEaware :: SWA811 KLAX-KVCV

SWA811 :: KLAX-KVCV

FLIGHT INFORMATION

Flight Status: Arrived
Operator:
Southwest Airlines
More flights by this operator :: More flights under this callsign
Pilot: Erik K. (18332)
Aircraft: BOEING 737-800
(B738)
More flights by this aircraft type
Origin: KLAX Los Angeles Intl
United States
Destination: KVCV Socal Logistics
United States
More flights between these airports :: More routes between these airports
Route: +LADYJ4 LADYJ SLAPP PMD
File this flight plan on PilotEdge
Remarks:
Altitude:
(Current/Filed)
13,000ft
Speed:
(Current/Filed)
400kts
Departed: 17-Mar-19 03:22 PM
Arrived: 17-Mar-19 03:49 PM
Distance/Time
Traveled:
64nm/0:27
Distance/Time
To Go:
Arrived

Flight Plot

Page will automatically refresh every two minutes.

Flight plan parsing failed; only flown route is shown


Map Options




Map Legend


Flown Route
Filed Route
Departure Airport
Arrival Airport
Navaid (VOR, NDB)
Fix

Horizontal Profiles

Position Reports

Time Latitude Longitude Heading Altitude Ground
Speed
17-Mar-19 14:30 33.946658 -118.402325 53 123ft 2kts
17-Mar-19 14:31 33.946406 -118.402422 352 123ft 0kts
17-Mar-19 14:32 33.946406 -118.402422 352 123ft 0kts
17-Mar-19 14:33 33.946406 -118.402422 352 123ft 0kts
17-Mar-19 14:34 33.946406 -118.402422 352 123ft 0kts
17-Mar-19 14:35 33.946406 -118.402422 352 123ft 0kts
17-Mar-19 14:36 33.946406 -118.402422 352 123ft 0kts
17-Mar-19 14:37 33.946406 -118.402422 352 123ft 0kts
17-Mar-19 14:38 33.946406 -118.402422 352 123ft 0kts
17-Mar-19 14:39 33.946406 -118.402422 352 123ft 0kts
17-Mar-19 14:40 33.946406 -118.402422 352 123ft 0kts
17-Mar-19 14:41 33.946406 -118.402422 352 123ft 0kts
17-Mar-19 14:42 33.946406 -118.402422 352 123ft 0kts
17-Mar-19 14:43 33.946406 -118.402422 352 123ft 0kts
17-Mar-19 14:44 33.946406 -118.402422 352 123ft 0kts
17-Mar-19 14:45 33.946406 -118.402422 352 123ft 0kts
17-Mar-19 14:46 33.946406 -118.402422 352 123ft 0kts
17-Mar-19 14:47 33.946406 -118.402422 352 123ft 0kts
17-Mar-19 14:48 33.946406 -118.402422 352 123ft 0kts
17-Mar-19 14:49 33.946406 -118.402422 352 123ft 0kts
17-Mar-19 14:50 33.946406 -118.402422 352 123ft 0kts
17-Mar-19 14:51 33.946406 -118.402422 352 123ft 0kts
17-Mar-19 14:52 33.946406 -118.402422 352 123ft 0kts
17-Mar-19 14:53 33.946406 -118.402422 352 123ft 0kts
17-Mar-19 14:54 33.946406 -118.402422 352 123ft 0kts
17-Mar-19 14:55 33.946406 -118.402422 352 123ft 0kts
17-Mar-19 14:56 33.946727 -118.401744 84 122ft 0kts
17-Mar-19 14:57 33.946727 -118.401744 84 122ft 0kts
17-Mar-19 14:58 33.946727 -118.401744 84 122ft 0kts
17-Mar-19 14:59 33.946727 -118.401744 84 122ft 0kts
17-Mar-19 15:00 33.946727 -118.401744 84 122ft 0kts
17-Mar-19 15:02 33.946727 -118.401744 84 122ft 0kts
17-Mar-19 15:03 33.946727 -118.401744 84 122ft 0kts
17-Mar-19 15:04 33.946727 -118.401744 84 122ft 0kts
17-Mar-19 15:05 33.946727 -118.401744 84 122ft 0kts
17-Mar-19 15:06 33.946727 -118.401744 84 122ft 0kts
17-Mar-19 15:07 33.946727 -118.401744 84 122ft 0kts
17-Mar-19 15:08 33.946727 -118.401744 84 122ft 0kts
17-Mar-19 15:09 33.946727 -118.401744 84 122ft 0kts
17-Mar-19 15:10 33.946682 -118.402198 83 122ft 0kts
17-Mar-19 15:11 33.946408 -118.402425 352 123ft 0kts
17-Mar-19 15:12 33.946409 -118.402425 352 123ft 0kts
17-Mar-19 15:13 33.946840 -118.402799 297 123ft 0kts
17-Mar-19 15:14 33.949114 -118.401745 84 121ft 13kts
17-Mar-19 15:15 33.949153 -118.401266 84 120ft 4kts
17-Mar-19 15:16 33.949096 -118.401991 84 121ft 0kts
17-Mar-19 15:17 33.949096 -118.401991 84 121ft 0kts
17-Mar-19 15:18 33.949096 -118.401991 84 121ft 0kts
17-Mar-19 15:19 33.949096 -118.401991 84 121ft 0kts
17-Mar-19 15:20 33.949096 -118.401991 84 121ft 0kts
17-Mar-19 15:20 33.949621 -118.401749 349 120ft 10kts
17-Mar-19 15:21 33.948233 -118.420013 262 185ft 160kts
17-Mar-19 15:23 33.941183 -118.493248 265 2970ft 210kts
17-Mar-19 15:23 33.938048 -118.552674 263 4777ft 218kts
17-Mar-19 15:24 33.943573 -118.630996 298 5006ft 272kts
17-Mar-19 15:25 34.005662 -118.681120 352 5995ft 294kts
17-Mar-19 15:26 34.086216 -118.661669 30 8008ft 290kts
17-Mar-19 15:27 34.152491 -118.605588 37 8002ft 289kts
17-Mar-19 15:28 34.219066 -118.547184 36 8509ft 301kts
17-Mar-19 15:29 34.285276 -118.489027 37 12629ft 292kts
17-Mar-19 15:30 34.357294 -118.425514 37 12976ft 338kts
17-Mar-19 15:31 34.434007 -118.357813 37 13006ft 337kts
17-Mar-19 15:32 34.498107 -118.278545 54 13043ft 334kts
17-Mar-19 15:33 34.550391 -118.184772 61 13061ft 333kts
17-Mar-19 15:34 34.596146 -118.086096 61 12963ft 332kts
17-Mar-19 15:35 34.642027 -117.987129 61 12960ft 332kts
17-Mar-19 15:36 34.685138 -117.894485 61 11878ft 302kts
17-Mar-19 15:37 34.726034 -117.805939 61 10379ft 294kts
17-Mar-19 15:38 34.765087 -117.719499 61 8863ft 286kts
17-Mar-19 15:39 34.802292 -117.635641 61 7587ft 276kts
17-Mar-19 15:40 34.834882 -117.551454 83 6243ft 269kts
17-Mar-19 15:41 34.823253 -117.469580 101 5024ft 231kts
17-Mar-19 15:42 34.810465 -117.399761 101 5017ft 181kts
17-Mar-19 15:43 34.780447 -117.373784 199 5055ft 154kts
17-Mar-19 15:44 34.739595 -117.388102 179 5037ft 152kts
17-Mar-19 15:45 34.696898 -117.387497 178 4323ft 150kts
17-Mar-19 15:46 34.655174 -117.387083 178 3510ft 149kts
17-Mar-19 15:47 34.611113 -117.386669 179 2839ft 159kts
17-Mar-19 15:48 34.595252 -117.386392 150 2858ft 31kts
17-Mar-19 15:49 34.594363 -117.383371 132 2860ft 15kts
17-Mar-19 15:50 34.590075 -117.378069 134 2872ft 25kts
17-Mar-19 15:51 34.588607 -117.375940 89 2868ft 0kts

Navigation Log

Ident Type
Flight plan parsing failed, navigation log unavailable